createdAt,value
2022-08-23T00:02:23.217Z,100901.94
2022-08-23T00:05:07.416Z,100894.81
2022-08-23T00:07:44.156Z,100897.81
2022-08-23T00:10:15.882Z,100905.25
2022-08-23T00:12:46.467Z,100897.75
2022-08-23T00:15:17.125Z,100901.34
2022-08-23T00:17:46.631Z,100900.50
2022-08-23T00:20:17.464Z,100901.38
2022-08-23T00:22:46.439Z,100894.47
2022-08-23T00:25:15.711Z,100906.00
2022-08-23T00:27:45.183Z,100904.38
2022-08-23T00:30:15.758Z,100908.16
2022-08-23T00:32:45.693Z,100913.97
2022-08-23T00:35:20.885Z,100918.09
2022-08-23T00:38:30.383Z,100922.25
2022-08-23T00:40:53.254Z,100925.22
2022-08-23T00:43:49.648Z,100928.50
2022-08-23T00:46:43.407Z,100923.53
2022-08-23T00:49:16.628Z,100929.34
2022-08-23T00:51:57.757Z,100929.34
2022-08-23T00:54:29.426Z,100927.91
2022-08-23T00:57:02.987Z,100932.91
2022-08-23T00:59:31.511Z,100932.88
2022-08-23T01:02:01.042Z,100928.78
2022-08-23T01:04:32.909Z,100940.50
2022-08-23T01:07:35.345Z,100932.00
2022-08-23T01:10:19.235Z,100938.59
2022-08-23T01:12:57.355Z,100933.59
2022-08-23T01:15:33.207Z,100935.50
2022-08-23T01:18:07.230Z,100941.31
2022-08-23T01:20:48.582Z,100941.78
2022-08-23T01:37:46.389Z,100939.97
2022-08-23T01:40:14.722Z,100932.81
2022-08-23T01:42:44.159Z,100939.97
2022-08-23T01:45:14.864Z,100934.47
2022-08-23T01:47:44.031Z,100935.56
2022-08-23T01:50:13.095Z,100935.84
2022-08-23T01:52:47.213Z,100942.72
2022-08-23T01:55:17.357Z,100934.47
2022-08-23T01:57:48.309Z,100933.88
2022-08-23T02:00:21.011Z,100941.66
2022-08-23T02:02:48.713Z,100955.28
2022-08-23T02:05:18.975Z,100945.38
2022-08-23T02:07:48.518Z,100942.06
2022-08-23T02:10:17.301Z,100946.41
2022-08-23T02:12:47.211Z,100944.69
2022-08-23T02:15:18.282Z,100937.31
2022-08-23T02:17:46.856Z,100944.69
2022-08-23T02:20:15.034Z,100956.16
2022-08-23T02:22:46.963Z,100945.19
2022-08-23T02:25:15.953Z,100952.25
2022-08-23T02:27:44.374Z,100963.72
2022-08-23T02:30:13.933Z,100950.47
2022-08-23T02:32:42.666Z,100958.13
2022-08-23T02:35:12.986Z,100971.78
2022-08-23T02:37:41.759Z,100968.16
2022-08-23T02:40:13.645Z,100964.00
2022-08-23T02:42:42.692Z,100969.22
2022-08-23T02:45:10.936Z,100978.78
2022-08-23T02:47:40.151Z,100984.81
2022-08-23T02:50:09.305Z,100979.81
2022-08-23T02:52:38.824Z,100991.28
2022-08-23T02:55:07.880Z,100984.31
2022-08-23T02:57:36.836Z,100996.91
2022-08-23T03:00:09.333Z,100998.22
2022-08-23T03:02:38.886Z,100990.09
2022-08-23T03:05:12.418Z,100999.38
2022-08-23T03:07:43.638Z,101000.16
2022-08-23T03:10:13.484Z,101008.63
2022-08-23T03:12:41.715Z,101012.06
2022-08-23T03:15:11.833Z,101002.44
2022-08-23T03:17:40.681Z,101008.13
2022-08-23T03:20:12.261Z,101006.47
2022-08-23T03:22:41.177Z,101013.13
2022-08-23T03:25:18.101Z,101010.78
2022-08-23T03:27:46.745Z,101002.47
2022-08-23T03:30:19.230Z,101010.66
2022-08-23T03:32:49.301Z,101021.94
2022-08-23T03:35:18.049Z,101011.28
2022-08-23T03:37:46.146Z,101016.59
2022-08-23T03:40:14.832Z,101020.41
2022-08-23T03:42:45.680Z,101034.38
2022-08-23T03:45:14.979Z,101025.72
2022-08-23T03:47:44.521Z,101033.63
2022-08-23T03:50:12.900Z,101044.59
2022-08-23T03:52:41.792Z,101039.69
2022-08-23T03:55:10.979Z,101041.00
2022-08-23T03:57:40.085Z,101045.66
2022-08-23T04:00:14.539Z,101034.03
2022-08-23T04:02:57.942Z,101032.34
2022-08-23T04:05:27.216Z,101036.41
2022-08-23T04:07:56.187Z,101044.91
2022-08-23T04:10:26.099Z,101033.75
2022-08-23T04:12:55.168Z,101038.97
2022-08-23T04:15:25.600Z,101043.53
2022-08-23T04:17:53.753Z,101035.81
2022-08-23T04:20:22.511Z,101041.94
2022-08-23T04:22:56.099Z,101056.66
2022-08-23T04:25:33.712Z,101052.91
2022-08-23T04:28:04.129Z,101052.41
2022-08-23T04:30:33.530Z,101049.91
2022-08-23T04:33:02.933Z,101061.00
2022-08-23T04:35:41.557Z,101055.25
2022-08-23T04:38:24.344Z,101049.19
2022-08-23T04:41:15.415Z,101059.16
2022-08-23T04:43:47.394Z,101061.44
2022-08-23T04:46:24.089Z,101060.53
2022-08-23T04:48:58.472Z,101065.19
2022-08-23T04:51:30.831Z,101065.34
2022-08-23T04:53:59.094Z,101075.31
2022-08-23T04:56:29.154Z,101086.97
2022-08-23T04:58:58.223Z,101087.47
2022-08-23T05:01:29.087Z,101084.66
2022-08-23T05:03:59.742Z,101091.88
2022-08-23T05:06:30.808Z,101098.53
2022-08-23T05:09:02.104Z,101105.69
2022-08-23T05:11:31.789Z,101103.81
2022-08-23T05:13:59.842Z,101109.06
2022-08-23T05:16:29.777Z,101111.84
2022-08-23T05:19:00.908Z,101099.28
2022-08-23T05:21:30.202Z,101103.22
2022-08-23T05:23:58.948Z,101098.34
2022-08-23T05:26:32.235Z,101111.00
2022-08-23T05:29:01.488Z,101111.59
2022-08-23T05:31:30.767Z,101104.75
2022-08-23T05:34:00.094Z,101101.03
2022-08-23T05:36:28.704Z,101114.81
2022-08-23T05:38:58.790Z,101114.03
2022-08-23T05:41:38.026Z,101125.81
2022-08-23T05:44:07.876Z,101116.81
2022-08-23T05:46:37.995Z,101111.88
2022-08-23T05:49:07.112Z,101126.53
2022-08-23T05:51:35.770Z,101120.03
2022-08-23T05:54:09.232Z,101123.63
2022-08-23T05:56:42.619Z,101121.41
2022-08-23T05:59:17.388Z,101129.72
2022-08-23T06:01:45.871Z,101115.19
2022-08-23T06:04:20.378Z,101128.13
2022-08-23T06:06:52.322Z,101128.69
2022-08-23T06:09:21.411Z,101112.81
2022-08-23T06:11:50.093Z,101122.19
2022-08-23T06:14:22.771Z,101121.94
2022-08-23T06:16:55.467Z,101133.81
2022-08-23T06:19:25.988Z,101122.78
2022-08-23T06:21:54.901Z,101121.66
2022-08-23T06:24:23.452Z,101121.72
2022-08-23T06:26:51.812Z,101118.94
2022-08-23T06:29:21.831Z,101125.53
2022-08-23T06:31:52.569Z,101123.34
2022-08-23T06:34:35.566Z,101131.59
2022-08-23T06:37:15.539Z,101127.72
2022-08-23T06:39:44.889Z,101135.16
2022-08-23T06:42:50.221Z,101132.94
2022-08-23T06:45:06.707Z,101142.81
2022-08-23T06:47:34.967Z,101137.50
2022-08-23T06:50:04.509Z,101134.13
2022-08-23T06:52:32.795Z,101142.91
2022-08-23T06:55:03.061Z,101137.84
2022-08-23T06:57:32.708Z,101138.94
2022-08-23T07:00:01.737Z,101131.72
2022-08-23T07:02:29.918Z,101155.88
2022-08-23T07:04:59.023Z,101146.22
2022-08-23T07:07:37.555Z,101154.69
2022-08-23T07:10:15.703Z,101158.16
2022-08-23T07:12:44.952Z,101146.34
2022-08-23T07:15:13.666Z,101139.34
2022-08-23T07:17:42.402Z,101157.81
2022-08-23T07:20:11.514Z,101159.59
2022-08-23T07:22:40.631Z,101147.34
2022-08-23T07:25:09.921Z,101165.38
2022-08-23T07:27:37.777Z,101160.06
2022-08-23T07:30:09.983Z,101176.88
2022-08-23T07:32:38.807Z,101166.78
2022-08-23T07:35:10.703Z,101161.47
2022-08-23T07:37:40.157Z,101163.22
2022-08-23T07:40:11.076Z,101163.91
2022-08-23T07:42:48.845Z,101175.22
2022-08-23T07:45:22.987Z,101168.50
2022-08-23T07:47:52.995Z,101174.06
2022-08-23T07:50:22.889Z,101171.66
2022-08-23T07:52:50.651Z,101168.06
2022-08-23T07:55:18.936Z,101177.34
2022-08-23T07:57:48.462Z,101179.84
2022-08-23T08:00:17.052Z,101173.19
2022-08-23T08:02:46.502Z,101177.47
2022-08-23T08:05:17.332Z,101167.50
2022-08-23T08:07:49.764Z,101197.00
2022-08-23T08:10:18.901Z,101166.72
2022-08-23T08:12:50.318Z,101162.72
2022-08-23T08:15:20.692Z,101163.53
2022-08-23T08:17:50.966Z,101178.47
2022-08-23T08:20:20.897Z,101171.81
2022-08-23T08:22:58.469Z,101171.19
2022-08-23T08:25:31.171Z,101153.97
2022-08-23T08:28:00.214Z,101172.88
2022-08-23T08:30:29.631Z,101172.50
2022-08-23T08:32:57.968Z,101181.00
2022-08-23T08:35:26.867Z,101176.41
2022-08-23T08:37:54.683Z,101186.88
2022-08-23T08:40:40.471Z,101184.78
2022-08-23T08:43:35.136Z,101168.72
2022-08-23T08:46:38.049Z,101172.44
2022-08-23T08:49:11.417Z,101170.97
2022-08-23T08:52:11.211Z,101167.63
2022-08-23T08:54:47.880Z,101163.72
2022-08-23T08:57:25.320Z,101167.84
2022-08-23T09:00:15.173Z,101161.00
2022-08-23T09:02:45.490Z,101167.63
2022-08-23T09:05:21.049Z,101167.13
2022-08-23T09:08:26.169Z,101161.16
2022-08-23T09:11:02.856Z,101162.69
2022-08-23T09:13:54.374Z,101169.50
2022-08-23T09:16:35.702Z,101166.91
2022-08-23T09:19:05.935Z,101169.56
2022-08-23T09:21:59.787Z,101165.44
2022-08-23T09:24:32.427Z,101178.53
2022-08-23T09:27:00.943Z,101169.56
2022-08-23T09:29:51.316Z,101190.22
2022-08-23T09:32:37.815Z,101168.09
2022-08-23T09:35:26.579Z,101169.50
2022-08-23T09:38:01.503Z,101168.16
2022-08-23T09:40:54.244Z,101178.34
2022-08-23T09:43:27.781Z,101177.41
2022-08-23T09:46:02.772Z,101179.88
2022-08-23T09:48:44.921Z,101179.19
2022-08-23T09:51:42.899Z,101171.50
2022-08-23T09:54:47.352Z,101165.41
2022-08-23T09:57:25.486Z,101169.97
2022-08-23T09:59:56.666Z,101154.53
2022-08-23T10:02:35.550Z,101178.34
2022-08-23T10:05:38.057Z,101167.47
2022-08-23T10:08:10.750Z,101156.44
2022-08-23T10:10:52.416Z,101173.97
2022-08-23T10:13:31.197Z,101165.97
2022-08-23T10:16:10.159Z,101160.53
2022-08-23T10:18:57.211Z,101165.69
2022-08-23T10:21:33.831Z,101154.97
2022-08-23T10:24:24.461Z,101154.69
2022-08-23T10:27:26.796Z,101163.59
2022-08-23T10:30:06.573Z,101155.97
2022-08-23T10:32:38.568Z,101163.34
2022-08-23T10:36:22.668Z,101164.41
2022-08-23T10:39:14.068Z,101165.31
2022-08-23T10:41:56.596Z,101167.22
2022-08-23T10:44:36.060Z,101164.16
2022-08-23T10:47:39.581Z,101160.94
2022-08-23T10:50:13.285Z,101162.97
2022-08-23T10:52:49.440Z,101165.25
2022-08-23T10:55:50.617Z,101164.97
2022-08-23T10:58:24.075Z,101167.09
2022-08-23T11:00:54.938Z,101165.31
2022-08-23T11:03:37.691Z,101180.75
2022-08-23T11:06:36.766Z,101163.00
2022-08-23T11:09:25.882Z,101170.81
2022-08-23T11:12:20.045Z,101153.47
2022-08-23T11:14:58.203Z,101159.00
2022-08-23T11:17:59.879Z,101151.28
2022-08-23T11:20:56.036Z,101148.09
2022-08-23T11:23:40.041Z,101153.75
2022-08-23T11:26:12.361Z,101149.13
2022-08-23T11:28:47.323Z,101141.56
2022-08-23T11:31:43.280Z,101143.22
2022-08-23T11:34:27.907Z,101144.25
2022-08-23T11:37:27.461Z,101124.84
2022-08-23T11:39:58.837Z,101133.50
2022-08-23T11:42:43.001Z,101119.84
2022-08-23T11:45:35.974Z,101133.06
2022-08-23T11:48:37.532Z,101126.06
2022-08-23T11:51:49.765Z,101127.19
2022-08-23T11:54:50.312Z,101129.28
2022-08-23T11:57:26.611Z,101126.19
2022-08-23T12:00:30.991Z,101129.97
2022-08-23T12:03:07.772Z,101122.59
2022-08-23T12:06:12.524Z,101118.16
2022-08-23T12:09:01.726Z,101127.22
2022-08-23T12:12:00.026Z,101126.13
2022-08-23T12:14:50.491Z,101128.31
2022-08-23T12:17:28.664Z,101120.75
2022-08-23T12:20:06.989Z,101118.00
2022-08-23T12:22:59.883Z,101111.63
2022-08-23T12:25:30.853Z,101130.13
2022-08-23T12:28:35.770Z,101115.44
2022-08-23T12:31:29.291Z,101116.03
2022-08-23T12:34:20.907Z,101110.84
2022-08-23T12:37:12.868Z,101112.75
2022-08-23T12:39:51.592Z,101121.47
2022-08-23T12:42:27.042Z,101103.34
2022-08-23T12:45:15.261Z,101113.09
2022-08-23T12:47:56.620Z,101111.53
2022-08-23T12:50:42.064Z,101111.53
2022-08-23T12:53:26.824Z,101121.72
2022-08-23T12:56:06.027Z,101121.25
2022-08-23T12:58:39.036Z,101118.59
2022-08-23T13:01:19.918Z,101110.59
2022-08-23T13:03:55.372Z,101099.91
2022-08-23T13:06:30.181Z,101109.69
2022-08-23T13:09:15.546Z,101122.22
2022-08-23T13:11:46.439Z,101107.69
2022-08-23T13:14:27.052Z,101106.03
2022-08-23T13:17:22.893Z,101104.66
2022-08-23T13:20:13.688Z,101106.22
2022-08-23T13:23:05.821Z,101106.28
2022-08-23T13:25:38.582Z,101109.16
2022-08-23T13:28:27.236Z,101104.63
2022-08-23T13:31:02.876Z,101105.78
2022-08-23T13:33:32.689Z,101110.31
2022-08-23T13:36:27.056Z,101098.31
2022-08-23T13:38:56.489Z,101108.28
2022-08-23T13:41:28.028Z,101106.28
2022-08-23T13:43:58.182Z,101108.44
2022-08-23T13:46:29.844Z,101094.28
2022-08-23T13:49:22.375Z,101106.75
2022-08-23T13:54:59.037Z,101105.22
2022-08-23T13:57:30.199Z,101105.50
2022-08-23T13:59:59.259Z,101109.44
2022-08-23T14:02:29.703Z,101111.16
2022-08-23T14:04:57.781Z,101097.06
2022-08-23T14:07:26.620Z,101103.38
2022-08-23T14:09:55.305Z,101092.91
2022-08-23T14:12:28.183Z,101087.53
2022-08-23T14:14:58.443Z,101095.03
2022-08-23T14:17:31.002Z,101092.97
2022-08-23T14:22:52.529Z,101093.63
2022-08-23T14:25:20.873Z,101094.84
2022-08-23T14:27:50.993Z,101081.94
2022-08-23T14:30:29.681Z,101086.81
2022-08-23T14:33:00.209Z,101082.97
2022-08-23T14:35:29.561Z,101081.63
2022-08-23T14:38:03.173Z,101087.09
2022-08-23T14:40:37.406Z,101096.66
2022-08-23T14:43:06.056Z,101081.84
2022-08-23T14:45:39.035Z,101086.63
2022-08-23T14:48:07.876Z,101087.44
2022-08-23T14:50:37.544Z,101089.09
2022-08-23T14:53:06.801Z,101080.38
2022-08-23T14:55:34.909Z,101081.84
2022-08-23T14:58:04.755Z,101085.09
2022-08-23T15:00:33.806Z,101090.69
2022-08-23T15:03:09.424Z,101089.19
2022-08-23T15:05:38.891Z,101089.69
2022-08-23T15:08:07.761Z,101082.38
2022-08-23T15:12:55.334Z,101087.31
2022-08-23T15:13:33.298Z,101084.09
2022-08-23T15:16:07.589Z,101075.13
2022-08-23T15:18:38.042Z,101083.78
2022-08-23T15:21:10.219Z,101084.22
2022-08-23T15:23:38.826Z,101080.41
2022-08-23T15:26:08.899Z,101079.88
2022-08-23T15:28:38.972Z,101085.88
2022-08-23T15:31:06.916Z,101080.81
2022-08-23T15:33:35.951Z,101078.31
2022-08-23T15:36:04.444Z,101084.00
2022-08-23T15:38:36.127Z,101091.69
2022-08-23T15:41:05.625Z,101088.00
2022-08-23T15:43:36.435Z,101086.22
2022-08-23T15:46:09.585Z,101091.38
2022-08-23T15:49:13.224Z,101094.91
2022-08-23T15:51:42.161Z,101095.53
2022-08-23T15:54:11.621Z,101096.16
2022-08-23T15:56:50.457Z,101095.75
2022-08-23T15:59:22.160Z,101099.94
2022-08-23T16:01:54.088Z,101094.00
2022-08-23T16:04:25.224Z,101103.06
2022-08-23T16:06:54.342Z,101105.84
2022-08-23T16:09:25.384Z,101105.13
2022-08-23T16:12:00.078Z,101109.88
2022-08-23T16:14:33.127Z,101108.47
2022-08-23T16:17:04.549Z,101114.03
2022-08-23T16:19:33.939Z,101115.47
2022-08-23T16:22:03.830Z,101114.41
2022-08-23T16:24:32.898Z,101117.91
2022-08-23T16:27:01.843Z,101123.03
2022-08-23T16:29:35.994Z,101119.94
2022-08-23T16:32:05.040Z,101112.75
2022-08-23T16:34:35.927Z,101116.63
2022-08-23T16:37:09.748Z,101115.63
2022-08-23T16:39:39.744Z,101117.66
2022-08-23T16:42:07.808Z,101125.59
2022-08-23T16:44:39.311Z,101126.19
2022-08-23T16:47:12.748Z,101133.13
2022-08-23T16:49:44.194Z,101133.31
2022-08-23T16:52:16.087Z,101131.66
2022-08-23T16:54:57.879Z,101140.88
2022-08-23T16:57:32.814Z,101135.97
2022-08-23T17:00:01.549Z,101135.28
2022-08-23T17:02:35.167Z,101131.47
2022-08-23T17:05:06.025Z,101144.34
2022-08-23T17:07:38.802Z,101148.84
2022-08-23T17:10:12.794Z,101143.91
2022-08-23T17:12:57.319Z,101144.63
2022-08-23T17:15:32.336Z,101154.28
2022-08-23T17:18:02.769Z,101154.06
2022-08-23T17:20:47.342Z,101161.63
2022-08-23T17:23:17.439Z,101163.66
2022-08-23T17:25:48.810Z,101156.56
2022-08-23T17:28:20.791Z,101170.19
2022-08-23T17:30:51.478Z,101165.25
2022-08-23T17:33:29.490Z,101167.91
2022-08-23T17:35:59.071Z,101165.97
2022-08-23T17:38:28.446Z,101175.59
2022-08-23T17:40:57.795Z,101172.38
2022-08-23T17:43:27.587Z,101174.06
2022-08-23T17:45:57.735Z,101173.59
2022-08-23T17:48:28.892Z,101172.53
2022-08-23T17:51:00.010Z,101175.84
2022-08-23T17:53:29.138Z,101175.59
2022-08-23T17:56:05.768Z,101177.78
2022-08-23T17:58:38.809Z,101180.66
2022-08-23T18:01:08.511Z,101174.59
2022-08-23T18:03:39.296Z,101181.56
2022-08-23T18:06:16.248Z,101174.06
2022-08-23T18:08:51.832Z,101178.47
2022-08-23T18:11:19.913Z,101179.91
2022-08-23T18:13:48.966Z,101176.56
2022-08-23T18:16:18.448Z,101179.38
2022-08-23T18:18:46.832Z,101174.75
2022-08-23T18:21:14.993Z,101175.59
2022-08-23T18:23:43.820Z,101174.00
2022-08-23T18:26:37.952Z,101167.91
2022-08-23T18:29:14.833Z,101166.28
2022-08-23T18:31:45.177Z,101170.97
2022-08-23T18:34:15.099Z,101168.75
2022-08-23T18:36:45.659Z,101160.47
2022-08-23T18:39:15.022Z,101168.78
2022-08-23T18:41:43.426Z,101172.38
2022-08-23T18:44:12.772Z,101175.22
2022-08-23T18:46:44.372Z,101179.38
2022-08-23T18:49:12.919Z,101174.66
2022-08-23T18:51:42.366Z,101179.16
2022-08-23T18:54:13.890Z,101179.16
2022-08-23T18:56:41.965Z,101174.19
2022-08-23T18:59:11.316Z,101173.13
2022-08-23T19:01:41.618Z,101168.44
2022-08-23T19:04:11.816Z,101167.13
2022-08-23T19:06:54.198Z,101163.78
2022-08-23T19:09:26.043Z,101168.22
2022-08-23T19:11:55.166Z,101174.28
2022-08-23T19:14:25.526Z,101171.78
2022-08-23T19:16:56.341Z,101174.84
2022-08-23T19:19:25.269Z,101173.75
2022-08-23T19:21:53.963Z,101169.13
2022-08-23T19:24:23.889Z,101178.81
2022-08-23T19:26:53.342Z,101167.75
2022-08-23T19:29:22.794Z,101174.13
2022-08-23T19:31:52.033Z,101173.84
2022-08-23T19:34:22.497Z,101166.97
2022-08-23T19:37:00.599Z,101172.25
2022-08-23T19:39:31.945Z,101175.56
2022-08-23T19:42:01.725Z,101171.13
2022-08-23T19:44:33.308Z,101170.63
2022-08-23T19:47:06.301Z,101166.69
2022-08-23T19:49:35.414Z,101168.38
2022-08-23T19:52:04.382Z,101160.97
2022-08-23T19:54:33.572Z,101167.31
2022-08-23T19:57:03.117Z,101162.06
2022-08-23T19:59:37.292Z,101164.00
2022-08-23T20:02:07.722Z,101165.13
2022-08-23T20:04:37.306Z,101164.28
2022-08-23T20:07:06.788Z,101160.97
2022-08-23T20:09:36.750Z,101159.59
2022-08-23T20:12:06.341Z,101161.25
2022-08-23T20:14:39.628Z,101165.72
2022-08-23T20:17:10.596Z,101167.09
2022-08-23T20:19:41.944Z,101159.66
2022-08-23T20:22:30.493Z,101149.72
2022-08-23T20:24:59.826Z,101165.44
2022-08-23T20:27:30.652Z,101166.25
2022-08-23T20:30:06.580Z,101148.31
2022-08-23T20:32:35.850Z,101166.84
2022-08-23T20:35:08.258Z,101157.19
2022-08-23T20:37:36.977Z,101167.38
2022-08-23T20:40:08.005Z,101163.25
2022-08-23T20:42:38.385Z,101169.63
2022-08-23T20:45:08.725Z,101157.47
2022-08-23T20:47:38.040Z,101171.25
2022-08-23T20:50:08.314Z,101165.19
2022-08-23T20:52:39.359Z,101163.00
2022-08-23T20:55:10.974Z,101164.06
2022-08-23T20:57:39.944Z,101160.19
2022-08-23T21:00:10.526Z,101165.72
2022-08-23T21:02:39.803Z,101159.38
2022-08-23T21:05:08.113Z,101166.00
2022-08-23T21:07:37.215Z,101147.81
2022-08-23T21:10:05.421Z,101156.91
2022-08-23T21:12:35.321Z,101151.97
2022-08-23T21:15:08.942Z,101151.41
2022-08-23T21:17:48.743Z,101167.41
2022-08-23T21:20:21.665Z,101165.53
2022-08-23T21:22:49.977Z,101163.03
2022-08-23T21:25:19.068Z,101158.06
2022-08-23T21:27:47.120Z,101159.69
2022-08-23T21:30:16.669Z,101165.78
2022-08-23T21:32:48.290Z,101163.84
2022-08-23T21:35:21.464Z,101166.03
2022-08-23T21:38:00.208Z,101165.22
2022-08-23T21:40:35.236Z,101170.22
2022-08-23T21:43:06.567Z,101158.06
2022-08-23T21:45:39.604Z,101164.41
2022-08-23T21:48:11.012Z,101169.41
2022-08-23T21:50:42.391Z,101169.13
2022-08-23T21:53:22.981Z,101175.19
2022-08-23T21:55:51.322Z,101162.50
2022-08-23T21:58:21.939Z,101165.56
2022-08-23T22:00:50.980Z,101171.63
2022-08-23T22:03:19.998Z,101171.59
2022-08-23T22:05:51.191Z,101165.53
2022-08-23T22:08:20.572Z,101178.25
2022-08-23T22:10:58.254Z,101173.56
2022-08-23T22:13:29.128Z,101174.09
2022-08-23T22:15:58.216Z,101179.59
2022-08-23T22:18:28.759Z,101171.31
2022-08-23T22:23:44.892Z,101175.97
2022-08-23T22:26:16.718Z,101180.66
2022-08-23T22:28:45.083Z,101180.09
2022-08-23T22:31:15.785Z,101186.16
2022-08-23T22:33:45.739Z,101180.38
2022-08-23T22:36:18.709Z,101186.13
2022-08-23T22:38:47.771Z,101179.53
2022-08-23T22:41:19.369Z,101179.25
2022-08-23T22:43:48.125Z,101187.19
2022-08-23T22:46:17.140Z,101179.47
2022-08-23T22:48:46.305Z,101186.69
2022-08-23T22:51:32.957Z,101192.44
2022-08-23T22:54:04.000Z,101187.75
2022-08-23T22:56:41.282Z,101194.34
2022-08-23T22:59:10.796Z,101194.63
2022-08-23T23:01:44.219Z,101191.00
2022-08-23T23:04:16.765Z,101195.66
2022-08-23T23:06:46.310Z,101192.09
2022-08-23T23:09:18.317Z,101193.16
2022-08-23T23:11:48.553Z,101193.97
2022-08-23T23:14:22.171Z,101194.81
2022-08-23T23:16:53.469Z,101200.28
2022-08-23T23:19:41.353Z,101206.88
2022-08-23T23:22:11.562Z,101206.88
2022-08-23T23:24:40.629Z,101218.72
2022-08-23T23:27:09.496Z,101213.47
2022-08-23T23:29:38.934Z,101215.69
2022-08-23T23:32:07.923Z,101218.44
2022-08-23T23:34:38.128Z,101209.91
2022-08-23T23:37:06.755Z,101214.00
2022-08-23T23:39:37.358Z,101215.06
2022-08-23T23:42:06.451Z,101212.31
2022-08-23T23:44:34.960Z,101210.09
2022-08-23T23:47:03.904Z,101216.16
2022-08-23T23:49:33.838Z,101224.97
2022-08-23T23:52:04.418Z,101224.97
2022-08-23T23:54:35.783Z,101230.19
2022-08-23T23:57:06.518Z,101217.22
2022-08-23T23:59:35.652Z,101221.00
